createdAt,value
2018-06-19T00:01:44.657Z,6.23
2018-06-19T00:04:13.134Z,7.70
2018-06-19T00:06:41.632Z,6.47
2018-06-19T00:09:10.237Z,8.33
2018-06-19T00:11:38.765Z,7.13
2018-06-19T00:14:07.264Z,8.47
2018-06-19T00:16:36.796Z,10.60
2018-06-19T00:19:06.256Z,9.80
2018-06-19T00:21:52.657Z,8.77
2018-06-19T00:24:21.225Z,8.07
2018-06-19T00:26:49.721Z,8.27
2018-06-19T00:29:18.172Z,8.57
2018-06-19T00:31:46.723Z,9.20
2018-06-19T00:34:15.179Z,8.03
2018-06-19T00:36:43.616Z,7.93
2018-06-19T00:39:12.893Z,10.77
2018-06-19T00:41:41.765Z,9.53
2018-06-19T00:44:11.017Z,9.30
2018-06-19T00:46:44.114Z,10.83
2018-06-19T00:49:12.624Z,15.43
2018-06-19T00:51:41.112Z,8.57
2018-06-19T00:54:09.577Z,6.70
2018-06-19T00:56:51.185Z,7.70
2018-06-19T00:59:19.823Z,6.30
2018-06-19T01:01:48.292Z,7.50
2018-06-19T01:04:16.777Z,6.00
2018-06-19T01:06:45.604Z,6.67
2018-06-19T01:09:14.090Z,8.93
2018-06-19T01:11:42.656Z,9.70
2018-06-19T01:14:11.123Z,7.67
2018-06-19T01:16:39.580Z,10.73
2018-06-19T01:19:08.117Z,8.13
2018-06-19T01:21:36.565Z,8.70
2018-06-19T01:24:05.098Z,7.47
2018-06-19T01:26:33.363Z,9.67
2018-06-19T01:29:01.825Z,8.90
2018-06-19T01:31:30.309Z,8.37
2018-06-19T01:33:58.826Z,10.77
2018-06-19T01:36:27.321Z,7.00
2018-06-19T01:38:55.761Z,9.33
2018-06-19T01:41:24.276Z,7.90
2018-06-19T01:43:52.863Z,9.73
2018-06-19T01:46:21.297Z,8.43
2018-06-19T01:48:49.852Z,10.23
2018-06-19T01:51:18.309Z,9.27
2018-06-19T01:53:47.740Z,8.43
2018-06-19T01:56:16.226Z,11.63
2018-06-19T01:58:44.693Z,13.30
2018-06-19T02:01:13.176Z,10.40
2018-06-19T02:03:41.675Z,8.23
2018-06-19T02:06:10.145Z,9.97
2018-06-19T02:08:38.614Z,7.20
2018-06-19T02:11:07.101Z,9.57
2018-06-19T02:13:35.554Z,9.30
2018-06-19T02:16:04.068Z,6.90
2018-06-19T02:18:32.560Z,10.13
2018-06-19T02:21:00.994Z,9.77
2018-06-19T02:23:29.931Z,8.20
2018-06-19T02:25:58.415Z,7.07
2018-06-19T02:28:26.906Z,6.17
2018-06-19T02:30:54.997Z,8.30
2018-06-19T02:33:23.477Z,9.00
2018-06-19T02:35:52.069Z,6.53
2018-06-19T02:38:20.519Z,9.43
2018-06-19T02:40:49.008Z,7.13
2018-06-19T02:43:17.469Z,8.27
2018-06-19T02:45:45.600Z,7.97
2018-06-19T02:48:14.067Z,6.63
2018-06-19T02:50:42.710Z,9.97
2018-06-19T02:53:11.141Z,6.63
2018-06-19T02:55:39.670Z,9.33
2018-06-19T02:58:08.173Z,9.87
2018-06-19T03:00:36.760Z,6.00
2018-06-19T03:03:05.515Z,9.73
2018-06-19T03:05:33.997Z,9.67
2018-06-19T03:08:02.505Z,7.23
2018-06-19T03:10:30.973Z,8.33
2018-06-19T03:12:59.447Z,8.20
2018-06-19T03:15:27.915Z,7.57
2018-06-19T03:17:56.369Z,5.70
2018-06-19T03:20:24.880Z,7.00
2018-06-19T03:22:53.357Z,6.27
2018-06-19T03:25:21.898Z,4.70
2018-06-19T03:27:50.357Z,7.53
2018-06-19T03:30:18.877Z,6.37
2018-06-19T03:32:47.328Z,7.67
2018-06-19T03:35:15.849Z,6.90
2018-06-19T03:37:44.321Z,7.27
2018-06-19T03:40:12.801Z,8.03
2018-06-19T03:42:41.289Z,6.37
2018-06-19T03:45:09.741Z,9.03
2018-06-19T03:47:38.335Z,7.07
2018-06-19T03:50:07.409Z,7.10
2018-06-19T03:52:35.873Z,7.60
2018-06-19T03:55:04.412Z,6.57
2018-06-19T03:57:32.922Z,7.20
2018-06-19T04:00:01.357Z,9.10
2018-06-19T04:02:29.796Z,5.93
2018-06-19T04:04:58.265Z,7.20
2018-06-19T04:07:26.837Z,5.80
2018-06-19T04:09:55.773Z,7.70
2018-06-19T04:12:24.261Z,8.00
2018-06-19T04:14:52.737Z,5.60
2018-06-19T04:17:25.321Z,7.57
2018-06-19T04:19:54.530Z,8.43
2018-06-19T04:22:23.218Z,9.07
2018-06-19T04:24:51.704Z,10.63
2018-06-19T04:27:20.953Z,8.43
2018-06-19T04:29:49.500Z,7.57
2018-06-19T04:32:17.965Z,8.60
2018-06-19T04:34:46.400Z,6.60
2018-06-19T04:37:14.885Z,8.87
2018-06-19T04:39:43.364Z,8.43
2018-06-19T04:42:11.840Z,8.00
2018-06-19T04:44:40.289Z,11.60
2018-06-19T04:47:08.749Z,8.63
2018-06-19T04:49:37.283Z,7.80
2018-06-19T04:52:06.045Z,10.53
2018-06-19T04:54:34.860Z,9.27
2018-06-19T04:57:03.341Z,9.47
2018-06-19T04:59:31.771Z,10.70
2018-06-19T05:02:00.273Z,10.83
2018-06-19T05:04:28.765Z,7.80
2018-06-19T05:06:58.637Z,9.40
2018-06-19T05:09:27.151Z,9.23
2018-06-19T05:11:55.612Z,10.43
2018-06-19T05:14:24.074Z,10.03
2018-06-19T05:16:52.509Z,8.73
2018-06-19T05:19:20.988Z,8.40
2018-06-19T05:21:49.463Z,10.33
2018-06-19T05:24:17.908Z,9.53
2018-06-19T05:26:46.327Z,9.63
2018-06-19T05:29:14.780Z,9.83
2018-06-19T05:31:43.249Z,8.97
2018-06-19T05:34:11.689Z,8.67
2018-06-19T05:36:40.172Z,11.53
2018-06-19T05:39:10.127Z,8.27
2018-06-19T05:41:38.843Z,9.37
2018-06-19T05:44:08.316Z,9.50
2018-06-19T05:46:37.456Z,6.77
2018-06-19T05:49:06.305Z,7.00
2018-06-19T05:51:34.776Z,9.70
2018-06-19T05:54:03.225Z,10.77
2018-06-19T05:56:31.696Z,7.13
2018-06-19T05:59:00.224Z,7.93
2018-06-19T06:01:28.696Z,11.13
2018-06-19T06:03:57.228Z,8.30
2018-06-19T06:06:25.677Z,8.30
2018-06-19T06:08:54.140Z,10.60
2018-06-19T06:11:22.653Z,9.53
2018-06-19T06:13:51.148Z,11.23
2018-06-19T06:16:19.570Z,10.67
2018-06-19T06:18:48.053Z,8.03
2018-06-19T06:21:16.486Z,7.27
2018-06-19T06:23:44.997Z,8.80
2018-06-19T06:26:13.640Z,7.87
2018-06-19T06:28:42.216Z,8.40
2018-06-19T06:31:10.705Z,8.03
2018-06-19T06:33:39.114Z,10.43
2018-06-19T06:36:07.617Z,7.70
2018-06-19T06:38:36.261Z,8.30
2018-06-19T06:41:04.759Z,8.03
2018-06-19T06:43:33.276Z,8.10
2018-06-19T06:46:01.759Z,8.87
2018-06-19T06:48:30.364Z,7.90
2018-06-19T06:50:59.228Z,11.63
2018-06-19T06:53:27.844Z,6.20
2018-06-19T06:55:56.276Z,7.53
2018-06-19T06:58:24.992Z,7.87
2018-06-19T07:00:53.564Z,8.10
2018-06-19T07:03:22.969Z,7.93
2018-06-19T07:05:52.113Z,6.33
2018-06-19T07:08:20.537Z,8.00
2018-06-19T07:10:49.312Z,7.67
2018-06-19T07:13:17.861Z,6.77
2018-06-19T07:15:46.358Z,7.13
2018-06-19T07:18:15.341Z,5.87
2018-06-19T07:20:43.783Z,9.17
2018-06-19T07:23:12.250Z,6.30
2018-06-19T07:25:40.702Z,8.10
2018-06-19T07:28:09.181Z,7.00
2018-06-19T07:30:37.658Z,8.57
2018-06-19T07:33:06.262Z,8.00
2018-06-19T07:35:34.704Z,9.93
2018-06-19T07:38:03.286Z,7.30
2018-06-19T07:40:31.784Z,7.23
2018-06-19T07:43:02.021Z,7.20
2018-06-19T07:45:30.461Z,8.07
2018-06-19T07:47:59.209Z,9.93
2018-06-19T07:50:27.901Z,8.10
2018-06-19T07:52:56.498Z,10.57
2018-06-19T07:55:24.959Z,7.50
2018-06-19T07:57:53.596Z,9.07
2018-06-19T08:00:22.633Z,7.57
2018-06-19T08:02:51.065Z,6.73
2018-06-19T08:05:19.532Z,7.70
2018-06-19T08:07:47.995Z,9.30
2018-06-19T08:10:16.530Z,9.57
2018-06-19T08:12:44.975Z,9.30
2018-06-19T08:15:13.441Z,7.07
2018-06-19T08:17:42.341Z,6.47
2018-06-19T08:20:11.466Z,12.17
2018-06-19T08:22:39.980Z,9.37
2018-06-19T08:25:08.490Z,8.60
2018-06-19T08:27:36.989Z,8.23
2018-06-19T08:30:05.638Z,8.23
2018-06-19T08:32:34.156Z,8.53
2018-06-19T08:35:02.941Z,7.80
2018-06-19T08:37:31.409Z,8.93
2018-06-19T08:39:59.842Z,8.77
2018-06-19T08:42:28.325Z,7.97
2018-06-19T08:44:56.753Z,7.57
2018-06-19T08:47:25.213Z,8.47
2018-06-19T08:49:53.697Z,8.80
2018-06-19T08:52:22.298Z,9.10
2018-06-19T08:54:50.904Z,7.80
2018-06-19T08:57:19.379Z,7.67
2018-06-19T08:59:47.926Z,9.50
2018-06-19T09:02:16.464Z,10.47
2018-06-19T09:04:44.969Z,6.67
2018-06-19T09:07:13.497Z,8.03
2018-06-19T09:09:41.961Z,8.70
2018-06-19T09:12:10.464Z,8.53
2018-06-19T09:14:38.903Z,8.37
2018-06-19T09:17:07.385Z,9.47
2018-06-19T09:19:35.844Z,8.77
2018-06-19T09:22:04.331Z,8.07
2018-06-19T09:24:32.784Z,12.57
2018-06-19T09:27:01.085Z,9.63
2018-06-19T09:29:29.558Z,9.70
2018-06-19T09:31:59.179Z,9.57
2018-06-19T09:34:27.657Z,9.03
2018-06-19T09:36:56.237Z,9.43
2018-06-19T09:39:24.692Z,11.70
2018-06-19T09:41:53.239Z,9.83
2018-06-19T09:44:21.753Z,8.87
2018-06-19T09:46:50.276Z,8.33
2018-06-19T09:49:18.710Z,8.27
2018-06-19T09:51:46.868Z,10.93
2018-06-19T09:54:15.002Z,8.07
2018-06-19T09:56:43.598Z,6.60
2018-06-19T09:59:12.124Z,8.40
2018-06-19T10:01:40.596Z,8.47
2018-06-19T10:04:09.048Z,8.37
2018-06-19T10:06:37.597Z,6.13
2018-06-19T10:09:08.380Z,8.90
2018-06-19T10:11:36.965Z,9.03
2018-06-19T10:14:05.747Z,8.67
2018-06-19T10:16:34.213Z,9.50
2018-06-19T10:19:02.719Z,7.67
2018-06-19T10:21:31.168Z,9.67
2018-06-19T10:23:59.696Z,6.87
2018-06-19T10:26:28.152Z,6.70
2018-06-19T10:28:56.621Z,7.70
2018-06-19T10:31:25.121Z,5.20
2018-06-19T10:33:53.577Z,5.57
2018-06-19T10:36:22.046Z,8.67
2018-06-19T10:38:50.498Z,6.40
2018-06-19T10:41:18.965Z,6.30
2018-06-19T10:43:47.383Z,5.13
2018-06-19T10:46:16.218Z,6.30
2018-06-19T10:48:44.733Z,6.57
2018-06-19T10:51:13.216Z,5.17
2018-06-19T10:53:41.742Z,4.87
2018-06-19T10:56:10.237Z,5.03
2018-06-19T10:58:38.836Z,4.63
2018-06-19T11:01:07.309Z,6.00
2018-06-19T11:03:36.569Z,8.33
2018-06-19T11:06:05.110Z,7.60
2018-06-19T11:08:33.627Z,5.77
2018-06-19T11:11:02.196Z,5.07
2018-06-19T11:13:30.640Z,5.63
2018-06-19T11:15:59.136Z,6.23
2018-06-19T11:18:27.653Z,5.20
2018-06-19T11:20:56.077Z,5.03
2018-06-19T11:23:24.579Z,4.60
2018-06-19T11:25:53.013Z,4.00
2018-06-19T11:28:21.486Z,3.57
2018-06-19T11:30:49.901Z,5.37
2018-06-19T11:33:18.354Z,4.67
2018-06-19T11:35:46.884Z,4.07
2018-06-19T11:38:15.579Z,4.70
2018-06-19T11:40:44.080Z,6.13
2018-06-19T11:43:12.587Z,5.90
2018-06-19T11:45:41.066Z,5.97
2018-06-19T11:48:09.513Z,4.13
2018-06-19T11:50:38.069Z,5.50
2018-06-19T11:53:06.569Z,3.13
2018-06-19T11:55:35.017Z,3.80
2018-06-19T11:58:03.504Z,8.00
2018-06-19T12:00:32.101Z,4.03
2018-06-19T12:03:00.574Z,8.53
2018-06-19T12:05:29.449Z,6.50
2018-06-19T12:07:57.929Z,5.47
2018-06-19T12:10:26.497Z,7.27
2018-06-19T12:12:54.981Z,6.23
2018-06-19T12:15:23.441Z,6.37
2018-06-19T12:17:51.904Z,5.40
2018-06-19T12:20:20.392Z,3.63
2018-06-19T12:22:48.877Z,4.00
2018-06-19T12:25:17.374Z,4.50
2018-06-19T12:27:46.528Z,3.47
2018-06-19T12:30:14.981Z,4.03
2018-06-19T12:32:43.517Z,5.07
2018-06-19T12:35:12.141Z,6.70
2018-06-19T12:37:40.648Z,5.17
2018-06-19T12:40:09.213Z,4.57
2018-06-19T12:42:37.315Z,5.57
2018-06-19T12:45:05.862Z,4.33
2018-06-19T12:47:34.008Z,7.50
2018-06-19T12:50:41.227Z,5.23
2018-06-19T12:53:21.069Z,3.90
2018-06-19T12:56:01.705Z,3.60
2018-06-19T12:58:30.248Z,6.10
2018-06-19T13:00:58.812Z,3.70
2018-06-19T13:03:38.660Z,3.60
2018-06-19T13:06:18.313Z,4.50
2018-06-19T13:08:46.809Z,2.80
2018-06-19T13:11:15.417Z,5.03
2018-06-19T13:13:55.212Z,3.27
2018-06-19T13:16:34.727Z,5.60
2018-06-19T13:19:14.395Z,3.23
2018-06-19T13:21:42.864Z,4.00
2018-06-19T13:24:11.014Z,6.10
2018-06-19T13:26:39.497Z,2.30
2018-06-19T13:29:50.009Z,3.87
2018-06-19T13:32:18.485Z,4.50
2018-06-19T13:34:46.952Z,2.77
2018-06-19T13:37:15.438Z,2.60
2018-06-19T13:39:44.388Z,3.40
2018-06-19T13:43:23.102Z,2.30
2018-06-19T13:45:51.589Z,3.00
2018-06-19T13:48:20.036Z,2.83
2018-06-19T13:50:48.509Z,4.00
2018-06-19T13:53:16.972Z,6.07
2018-06-19T13:57:06.084Z,2.40
2018-06-19T13:59:34.588Z,3.30
2018-06-19T14:02:03.136Z,4.03
2018-06-19T14:04:32.720Z,3.27
2018-06-19T14:07:01.550Z,3.50
2018-06-19T14:09:41.416Z,3.57
2018-06-19T14:12:23.644Z,2.60
2018-06-19T14:14:54.153Z,4.77
2018-06-19T14:17:23.229Z,5.30
2018-06-19T14:19:52.355Z,5.47
2018-06-19T14:22:20.837Z,3.17
2018-06-19T14:24:49.533Z,4.13
2018-06-19T14:27:18.023Z,3.10
2018-06-19T14:29:46.485Z,4.83
2018-06-19T14:32:14.949Z,3.93
2018-06-19T14:34:43.444Z,3.47
2018-06-19T14:37:11.929Z,3.97
2018-06-19T14:39:40.454Z,3.20
2018-06-19T14:42:08.929Z,5.43
2018-06-19T14:44:37.416Z,4.10
2018-06-19T14:47:05.896Z,4.33
2018-06-19T14:49:34.388Z,4.50
2018-06-19T14:52:02.837Z,9.43
2018-06-19T14:54:31.295Z,4.63
2018-06-19T14:56:59.829Z,5.83
2018-06-19T14:59:28.354Z,4.80
2018-06-19T15:01:56.851Z,4.63
2018-06-19T15:04:25.292Z,5.87
2018-06-19T15:06:54.273Z,4.13
2018-06-19T15:09:23.508Z,4.87
2018-06-19T15:11:53.069Z,4.47
2018-06-19T15:14:21.581Z,6.73
2018-06-19T15:16:51.144Z,5.50
2018-06-19T15:19:19.604Z,5.40
2018-06-19T15:21:48.708Z,5.23
2018-06-19T15:24:17.308Z,5.47
2018-06-19T15:26:46.120Z,3.80
2018-06-19T15:29:14.660Z,5.00
2018-06-19T15:31:43.122Z,5.57
2018-06-19T15:34:11.557Z,5.53
2018-06-19T15:36:40.101Z,4.77
2018-06-19T15:39:11.508Z,3.70
2018-06-19T15:41:40.004Z,3.63
2018-06-19T15:44:08.862Z,9.00
2018-06-19T15:46:37.208Z,3.87
2018-06-19T15:49:06.429Z,4.73
2018-06-19T15:51:35.107Z,3.37
2018-06-19T15:54:03.963Z,3.50
2018-06-19T15:56:33.269Z,3.57
2018-06-19T15:59:01.956Z,3.93
2018-06-19T16:01:30.436Z,4.13
2018-06-19T16:03:58.913Z,3.87
2018-06-19T16:06:27.399Z,4.27
2018-06-19T16:08:55.869Z,4.13
2018-06-19T16:11:24.321Z,11.37
2018-06-19T16:13:52.821Z,6.73
2018-06-19T16:16:21.437Z,5.47
2018-06-19T16:18:50.041Z,3.57
2018-06-19T16:21:18.527Z,3.50
2018-06-19T16:23:47.000Z,5.63
2018-06-19T16:26:15.484Z,4.60
2018-06-19T16:28:43.983Z,5.13
2018-06-19T16:31:12.497Z,6.90
2018-06-19T16:33:41.089Z,5.20
2018-06-19T16:36:09.588Z,5.40
2018-06-19T16:38:38.146Z,5.30
2018-06-19T16:41:06.579Z,3.07
2018-06-19T16:43:35.132Z,4.70
2018-06-19T16:46:03.645Z,5.87
2018-06-19T16:48:32.081Z,3.23
2018-06-19T16:51:00.527Z,3.13
2018-06-19T16:53:28.984Z,6.90
2018-06-19T16:55:57.441Z,4.70
2018-06-19T16:58:25.876Z,6.03
2018-06-19T17:00:54.340Z,5.13
2018-06-19T17:03:22.882Z,4.70
2018-06-19T17:05:52.821Z,4.97
2018-06-19T17:08:21.293Z,4.60
2018-06-19T17:10:49.924Z,6.77
2018-06-19T17:13:18.389Z,4.13
2018-06-19T17:15:46.849Z,3.47
2018-06-19T17:18:15.268Z,5.27
2018-06-19T17:20:43.757Z,5.17
2018-06-19T17:23:12.300Z,4.67
2018-06-19T17:25:40.768Z,3.83
2018-06-19T17:28:09.230Z,3.87
2018-06-19T17:30:37.844Z,4.93
2018-06-19T17:33:06.292Z,4.83
2018-06-19T17:35:34.757Z,4.70
2018-06-19T17:38:03.330Z,4.57
2018-06-19T17:40:31.805Z,5.13
2018-06-19T17:43:00.226Z,3.53
2018-06-19T17:45:28.735Z,5.13
2018-06-19T17:47:57.224Z,5.47
2018-06-19T17:50:25.656Z,6.10
2018-06-19T17:52:54.176Z,4.20
2018-06-19T17:55:22.604Z,5.70
2018-06-19T17:57:51.087Z,4.70
2018-06-19T18:00:19.608Z,8.87
2018-06-19T18:02:48.088Z,7.10
2018-06-19T18:05:16.512Z,4.17
2018-06-19T18:07:45.041Z,4.23
2018-06-19T18:10:13.480Z,4.77
2018-06-19T18:12:41.969Z,5.43
2018-06-19T18:15:10.429Z,4.53
2018-06-19T18:17:38.885Z,4.60
2018-06-19T18:20:07.028Z,4.17
2018-06-19T18:22:35.494Z,4.63
2018-06-19T18:25:04.014Z,3.97
2018-06-19T18:27:32.477Z,4.20
2018-06-19T18:30:01.269Z,5.07
2018-06-19T18:32:29.730Z,5.70
2018-06-19T18:34:58.200Z,6.50
2018-06-19T18:37:26.749Z,6.07
2018-06-19T18:39:55.226Z,4.97
2018-06-19T18:42:23.657Z,6.27
2018-06-19T18:44:52.140Z,6.33
2018-06-19T18:47:20.625Z,7.87
2018-06-19T18:49:49.209Z,5.43
2018-06-19T18:52:17.439Z,7.13
2018-06-19T18:54:45.909Z,7.73
2018-06-19T18:57:14.372Z,6.77
2018-06-19T18:59:42.920Z,6.40
2018-06-19T19:02:11.374Z,6.63
2018-06-19T19:04:39.868Z,6.87
2018-06-19T19:07:08.376Z,8.10
2018-06-19T19:09:36.938Z,8.00
2018-06-19T19:12:05.441Z,7.27
2018-06-19T19:14:39.265Z,8.93
2018-06-19T19:17:12.985Z,9.10
2018-06-19T19:19:41.616Z,8.10
2018-06-19T19:22:09.722Z,8.63
2018-06-19T19:24:38.233Z,9.20
2018-06-19T19:27:11.932Z,7.23
2018-06-19T19:29:45.657Z,6.97
2018-06-19T19:32:14.111Z,8.33
2018-06-19T19:34:42.573Z,7.03
2018-06-19T19:37:16.305Z,6.87
2018-06-19T19:39:44.844Z,6.77
2018-06-19T19:42:13.306Z,6.43
2018-06-19T19:44:41.841Z,9.47
2018-06-19T19:47:15.496Z,8.20
2018-06-19T19:49:43.960Z,7.87
2018-06-19T19:52:12.470Z,7.03
2018-06-19T19:54:40.939Z,8.30
2018-06-19T19:57:14.781Z,6.77
2018-06-19T19:59:43.425Z,9.47
2018-06-19T20:02:11.963Z,8.37
2018-06-19T20:04:40.381Z,7.60
2018-06-19T20:07:08.836Z,7.60
2018-06-19T20:09:37.315Z,7.97
2018-06-19T20:12:05.884Z,7.00
2018-06-19T20:14:34.874Z,6.50
2018-06-19T20:17:03.046Z,7.90
2018-06-19T20:19:31.506Z,7.87
2018-06-19T20:21:59.991Z,6.03
2018-06-19T20:24:28.457Z,7.23
2018-06-19T20:26:56.912Z,8.07
2018-06-19T20:29:25.423Z,6.23
2018-06-19T20:31:53.926Z,5.97
2018-06-19T20:34:22.408Z,6.87
2018-06-19T20:36:50.890Z,5.77
2018-06-19T20:39:19.438Z,6.43
2018-06-19T20:41:47.913Z,9.17
2018-06-19T20:44:16.375Z,8.17
2018-06-19T20:46:44.836Z,7.47
2018-06-19T20:49:12.981Z,5.90
2018-06-19T20:51:41.096Z,7.70
2018-06-19T20:54:09.545Z,6.83
2018-06-19T20:56:37.988Z,7.43
2018-06-19T20:59:06.476Z,5.90
2018-06-19T21:01:34.948Z,7.03
2018-06-19T21:04:03.494Z,5.07
2018-06-19T21:06:31.932Z,6.10
2018-06-19T21:09:00.424Z,7.00
2018-06-19T21:11:28.916Z,6.17
2018-06-19T21:13:57.433Z,5.30
2018-06-19T21:16:26.034Z,6.50
2018-06-19T21:18:54.739Z,7.37
2018-06-19T21:21:23.189Z,5.43
2018-06-19T21:23:51.640Z,6.70
2018-06-19T21:26:20.091Z,6.67
2018-06-19T21:28:49.324Z,6.17
2018-06-19T21:31:17.789Z,6.87
2018-06-19T21:33:46.257Z,5.80
2018-06-19T21:36:14.676Z,6.20
2018-06-19T21:38:43.156Z,8.87
2018-06-19T21:41:11.868Z,10.53
2018-06-19T21:43:40.448Z,8.30
2018-06-19T21:46:08.931Z,7.23
2018-06-19T21:48:37.408Z,6.53
2018-06-19T21:51:05.877Z,6.77
2018-06-19T21:53:34.299Z,5.40
2018-06-19T21:56:02.763Z,7.10
2018-06-19T21:58:31.202Z,7.80
2018-06-19T22:00:59.653Z,4.73
2018-06-19T22:03:28.069Z,5.97
2018-06-19T22:05:56.531Z,3.83
2018-06-19T22:08:29.177Z,6.20
2018-06-19T22:10:57.637Z,4.63
2018-06-19T22:13:26.228Z,4.30
2018-06-19T22:15:54.694Z,4.53
2018-06-19T22:18:22.829Z,7.67
2018-06-19T22:20:51.265Z,5.03
2018-06-19T22:23:19.694Z,5.33
2018-06-19T22:25:48.152Z,5.03
2018-06-19T22:28:16.639Z,4.43
2018-06-19T22:30:45.046Z,4.93
2018-06-19T22:33:13.619Z,5.30
2018-06-19T22:35:42.048Z,6.20
2018-06-19T22:38:10.468Z,5.00
2018-06-19T22:40:38.904Z,6.23
2018-06-19T22:43:07.356Z,4.07
2018-06-19T22:45:35.785Z,5.57
2018-06-19T22:48:04.545Z,5.20
2018-06-19T22:50:33.284Z,4.97
2018-06-19T22:53:01.767Z,5.93
2018-06-19T22:55:30.188Z,5.10
2018-06-19T22:57:58.709Z,4.03
2018-06-19T23:00:27.533Z,7.47
2018-06-19T23:03:00.960Z,5.63
2018-06-19T23:05:29.533Z,5.47
2018-06-19T23:07:57.987Z,4.67
2018-06-19T23:10:27.072Z,6.03
2018-06-19T23:12:55.502Z,5.47
2018-06-19T23:15:24.340Z,5.80
2018-06-19T23:17:52.940Z,5.37
2018-06-19T23:20:21.457Z,5.30
2018-06-19T23:22:51.193Z,4.03
2018-06-19T23:25:19.893Z,5.97
2018-06-19T23:27:48.365Z,7.90
2018-06-19T23:30:17.768Z,5.43
2018-06-19T23:32:46.230Z,5.97
2018-06-19T23:35:14.828Z,6.40
2018-06-19T23:37:43.734Z,5.00
2018-06-19T23:40:12.503Z,5.50
2018-06-19T23:42:41.005Z,3.90
2018-06-19T23:45:09.436Z,4.00
2018-06-19T23:47:38.011Z,7.23
2018-06-19T23:50:06.476Z,5.53
2018-06-19T23:52:34.913Z,5.03
2018-06-19T23:55:03.411Z,6.67
2018-06-19T23:57:31.852Z,4.27
